sensor_id;sensor_type;location;lat;lon;timestamp;pressure;altitude;pressure_sealevel;temperature;humidity
498;BME280;39559;48.630;9.162;2023-06-19T00:02:22;97067.81;;;18.98;100.00
498;BME280;39559;48.630;9.162;2023-06-19T00:06:51;97068.06;;;18.95;100.00
498;BME280;39559;48.630;9.162;2023-06-19T00:09:16;97061.00;;;18.95;100.00
498;BME280;39559;48.630;9.162;2023-06-19T00:11:42;97065.00;;;18.90;100.00
498;BME280;39559;48.630;9.162;2023-06-19T00:14:08;97058.44;;;18.84;100.00
498;BME280;39559;48.630;9.162;2023-06-19T00:16:33;97057.75;;;18.71;100.00
498;BME280;39559;48.630;9.162;2023-06-19T00:18:59;97053.44;;;18.70;100.00
498;BME280;39559;48.630;9.162;2023-06-19T00:21:25;97059.28;;;18.73;100.00
498;BME280;39559;48.630;9.162;2023-06-19T00:23:51;97049.47;;;18.54;100.00
498;BME280;39559;48.630;9.162;2023-06-19T00:26:18;97054.16;;;18.51;100.00
498;BME280;39559;48.630;9.162;2023-06-19T00:30:45;97067.00;;;18.65;100.00
498;BME280;39559;48.630;9.162;2023-06-19T00:33:23;97060.50;;;18.48;100.00
498;BME280;39559;48.630;9.162;2023-06-19T00:35:50;97068.22;;;18.50;100.00
498;BME280;39559;48.630;9.162;2023-06-19T00:38:16;97065.75;;;18.48;100.00
498;BME280;39559;48.630;9.162;2023-06-19T00:40:42;97074.75;;;18.34;100.00
498;BME280;39559;48.630;9.162;2023-06-19T00:43:08;97067.34;;;18.39;100.00
498;BME280;39559;48.630;9.162;2023-06-19T00:45:34;97064.31;;;18.44;100.00
498;BME280;39559;48.630;9.162;2023-06-19T00:48:00;97068.50;;;18.47;100.00
498;BME280;39559;48.630;9.162;2023-06-19T00:50:28;97065.31;;;18.32;100.00
498;BME280;39559;48.630;9.162;2023-06-19T00:54:40;97075.09;;;18.41;100.00
498;BME280;39559;48.630;9.162;2023-06-19T00:57:06;97078.13;;;18.25;100.00
498;BME280;39559;48.630;9.162;2023-06-19T00:59:32;97079.25;;;18.44;100.00
498;BME280;39559;48.630;9.162;2023-06-19T01:01:58;97076.16;;;18.38;100.00
498;BME280;39559;48.630;9.162;2023-06-19T01:04:24;97075.94;;;18.41;100.00
498;BME280;39559;48.630;9.162;2023-06-19T01:06:57;97071.13;;;18.47;100.00
498;BME280;39559;48.630;9.162;2023-06-19T01:09:41;97072.59;;;18.39;100.00
498;BME280;39559;48.630;9.162;2023-06-19T01:12:33;97079.78;;;18.37;100.00
498;BME280;39559;48.630;9.162;2023-06-19T01:15:04;97084.75;;;18.40;100.00
498;BME280;39559;48.630;9.162;2023-06-19T01:18:35;97106.88;;;18.38;100.00
498;BME280;39559;48.630;9.162;2023-06-19T01:21:13;97124.09;;;18.31;100.00
498;BME280;39559;48.630;9.162;2023-06-19T01:23:39;97132.63;;;18.67;100.00
498;BME280;39559;48.630;9.162;2023-06-19T01:26:06;97140.75;;;18.64;100.00
498;BME280;39559;48.630;9.162;2023-06-19T01:28:33;97153.31;;;18.60;100.00
498;BME280;39559;48.630;9.162;2023-06-19T01:31:00;97154.25;;;18.70;100.00
498;BME280;39559;48.630;9.162;2023-06-19T01:33:31;97152.78;;;18.89;100.00
498;BME280;39559;48.630;9.162;2023-06-19T01:35:58;97150.69;;;19.04;100.00
498;BME280;39559;48.630;9.162;2023-06-19T01:38:27;97164.91;;;19.12;100.00
498;BME280;39559;48.630;9.162;2023-06-19T01:42:29;97167.81;;;19.30;97.27
498;BME280;39559;48.630;9.162;2023-06-19T01:44:55;97160.78;;;19.41;92.59
498;BME280;39559;48.630;9.162;2023-06-19T01:47:21;97166.75;;;19.64;89.03
498;BME280;39559;48.630;9.162;2023-06-19T01:49:47;97173.38;;;19.79;86.80
498;BME280;39559;48.630;9.162;2023-06-19T01:52:12;97159.47;;;19.98;nan
498;BME280;39559;48.630;9.162;2023-06-19T01:54:39;97163.81;;;20.09;84.55
498;BME280;39559;48.630;9.162;2023-06-19T01:57:05;97162.91;;;20.20;84.06
498;BME280;39559;48.630;9.162;2023-06-19T01:59:31;97166.63;;;20.17;83.86
498;BME280;39559;48.630;9.162;2023-06-19T02:01:57;97160.81;;;20.23;84.02
498;BME280;39559;48.630;9.162;2023-06-19T02:06:23;97167.69;;;20.45;82.63
498;BME280;39559;48.630;9.162;2023-06-19T02:08:49;97160.28;;;20.29;83.20
498;BME280;39559;48.630;9.162;2023-06-19T02:11:14;97164.31;;;20.33;84.03
498;BME280;39559;48.630;9.162;2023-06-19T02:13:41;97161.41;;;20.27;83.64
498;BME280;39559;48.630;9.162;2023-06-19T02:16:07;97160.13;;;20.21;83.49
498;BME280;39559;48.630;9.162;2023-06-19T02:18:32;97162.91;;;20.20;84.08
498;BME280;39559;48.630;9.162;2023-06-19T02:20:58;97155.81;;;20.20;84.29
498;BME280;39559;48.630;9.162;2023-06-19T02:23:24;97152.78;;;20.25;84.29
498;BME280;39559;48.630;9.162;2023-06-19T02:25:50;97157.22;;;20.24;84.41
498;BME280;39559;48.630;9.162;2023-06-19T02:30:18;97148.25;;;20.46;83.60
498;BME280;39559;48.630;9.162;2023-06-19T02:32:43;97153.69;;;20.45;83.01
498;BME280;39559;48.630;9.162;2023-06-19T02:35:10;97149.66;;;20.60;82.50
498;BME280;39559;48.630;9.162;2023-06-19T02:37:36;97156.44;;;20.43;83.97
498;BME280;39559;48.630;9.162;2023-06-19T02:40:05;97168.06;;;20.31;83.61
498;BME280;39559;48.630;9.162;2023-06-19T02:42:32;97167.50;;;20.27;82.66
498;BME280;39559;48.630;9.162;2023-06-19T02:44:58;97173.50;;;20.39;82.01
498;BME280;39559;48.630;9.162;2023-06-19T02:47:29;97174.34;;;20.40;82.32
498;BME280;39559;48.630;9.162;2023-06-19T02:50:00;97164.41;;;20.63;81.12
498;BME280;39559;48.630;9.162;2023-06-19T02:54:13;97160.41;;;20.28;85.90
498;BME280;39559;48.630;9.162;2023-06-19T02:56:38;97177.78;;;20.30;85.95
498;BME280;39559;48.630;9.162;2023-06-19T02:59:04;97188.03;;;19.93;87.36
498;BME280;39559;48.630;9.162;2023-06-19T03:01:30;97195.56;;;19.77;87.70
498;BME280;39559;48.630;9.162;2023-06-19T03:03:55;97193.16;;;19.94;86.67
498;BME280;39559;48.630;9.162;2023-06-19T03:06:21;97191.03;;;20.19;85.17
498;BME280;39559;48.630;9.162;2023-06-19T03:08:47;97196.84;;;20.13;84.76
498;BME280;39559;48.630;9.162;2023-06-19T03:11:12;97193.59;;;20.30;84.38
498;BME280;39559;48.630;9.162;2023-06-19T03:13:49;97201.91;;;20.26;84.19
498;BME280;39559;48.630;9.162;2023-06-19T03:18:07;97198.00;;;20.20;84.13
498;BME280;39559;48.630;9.162;2023-06-19T03:20:35;97202.56;;;20.18;85.45
498;BME280;39559;48.630;9.162;2023-06-19T03:23:00;97207.41;;;20.13;85.68
498;BME280;39559;48.630;9.162;2023-06-19T03:25:26;97214.34;;;20.14;85.74
498;BME280;39559;48.630;9.162;2023-06-19T03:27:52;97211.59;;;20.16;85.65
498;BME280;39559;48.630;9.162;2023-06-19T03:30:18;97208.19;;;20.04;86.72
498;BME280;39559;48.630;9.162;2023-06-19T03:32:44;97211.28;;;20.09;86.37
498;BME280;39559;48.630;9.162;2023-06-19T03:35:09;97215.41;;;20.02;86.89
498;BME280;39559;48.630;9.162;2023-06-19T03:37:36;97215.28;;;20.03;87.11
498;BME280;39559;48.630;9.162;2023-06-19T03:42:02;97208.44;;;20.01;87.69
498;BME280;39559;48.630;9.162;2023-06-19T03:44:27;97209.31;;;20.01;87.58
498;BME280;39559;48.630;9.162;2023-06-19T03:46:53;97216.63;;;19.98;87.86
498;BME280;39559;48.630;9.162;2023-06-19T03:49:19;97215.78;;;19.97;88.32
498;BME280;39559;48.630;9.162;2023-06-19T03:51:44;97222.69;;;20.19;88.53
498;BME280;39559;48.630;9.162;2023-06-19T03:54:10;97213.16;;;19.97;88.81
498;BME280;39559;48.630;9.162;2023-06-19T03:56:36;97214.34;;;19.83;90.15
498;BME280;39559;48.630;9.162;2023-06-19T03:59:02;97221.09;;;19.76;90.54
498;BME280;39559;48.630;9.162;2023-06-19T04:01:27;97225.13;;;19.80;90.59
498;BME280;39559;48.630;9.162;2023-06-19T04:05:57;97223.31;;;20.02;87.33
498;BME280;39559;48.630;9.162;2023-06-19T04:08:23;97228.53;;;19.92;88.32
498;BME280;39559;48.630;9.162;2023-06-19T04:10:50;97232.00;;;19.92;87.12
498;BME280;39559;48.630;9.162;2023-06-19T04:13:16;97230.19;;;19.93;88.09
498;BME280;39559;48.630;9.162;2023-06-19T04:15:42;97231.34;;;19.79;88.38
498;BME280;39559;48.630;9.162;2023-06-19T04:18:09;97235.41;;;19.83;88.86
498;BME280;39559;48.630;9.162;2023-06-19T04:20:35;97238.31;;;19.80;89.48
498;BME280;39559;48.630;9.162;2023-06-19T04:23:01;97232.22;;;19.80;90.48
498;BME280;39559;48.630;9.162;2023-06-19T04:25:27;97232.09;;;19.81;90.74
498;BME280;39559;48.630;9.162;2023-06-19T04:29:52;97233.28;;;19.77;91.90
498;BME280;39559;48.630;9.162;2023-06-19T04:32:18;97231.34;;;19.79;93.27
498;BME280;39559;48.630;9.162;2023-06-19T04:34:44;97222.16;;;19.73;94.49
498;BME280;39559;48.630;9.162;2023-06-19T04:37:12;97225.81;;;19.82;94.87
498;BME280;39559;48.630;9.162;2023-06-19T04:39:37;97222.38;;;19.82;94.93
498;BME280;39559;48.630;9.162;2023-06-19T04:42:03;97218.94;;;19.91;94.17
498;BME280;39559;48.630;9.162;2023-06-19T04:44:29;97235.09;;;19.77;96.48
498;BME280;39559;48.630;9.162;2023-06-19T04:46:59;97231.16;;;19.71;97.24
498;BME280;39559;48.630;9.162;2023-06-19T04:49:29;97232.03;;;19.60;98.20
498;BME280;39559;48.630;9.162;2023-06-19T04:53:48;97233.56;;;19.74;97.87
498;BME280;39559;48.630;9.162;2023-06-19T04:56:14;97233.56;;;19.74;98.12
498;BME280;39559;48.630;9.162;2023-06-19T04:58:41;97232.25;;;19.89;97.70
498;BME280;39559;48.630;9.162;2023-06-19T05:01:12;97225.56;;;19.85;96.07
498;BME280;39559;48.630;9.162;2023-06-19T05:03:39;97232.94;;;19.70;98.16
498;BME280;39559;48.630;9.162;2023-06-19T05:06:06;97237.16;;;19.94;96.47
498;BME280;39559;48.630;9.162;2023-06-19T05:08:31;97236.91;;;19.76;97.79
498;BME280;39559;48.630;9.162;2023-06-19T05:10:57;97242.16;;;19.76;98.88
498;BME280;39559;48.630;9.162;2023-06-19T05:13:24;97236.91;;;19.76;99.17
498;BME280;39559;48.630;9.162;2023-06-19T05:17:42;97236.50;;;20.02;96.49
498;BME280;39559;48.630;9.162;2023-06-19T05:20:20;97244.59;;;19.89;98.82
498;BME280;39559;48.630;9.162;2023-06-19T05:22:46;97235.09;;;19.98;98.95
498;BME280;39559;48.630;9.162;2023-06-19T05:25:12;97240.78;;;20.03;97.70
498;BME280;39559;48.630;9.162;2023-06-19T05:27:37;97240.72;;;20.14;97.13
498;BME280;39559;48.630;9.162;2023-06-19T05:30:04;97238.69;;;19.97;98.22
498;BME280;39559;48.630;9.162;2023-06-19T05:32:30;97240.41;;;19.86;98.46
498;BME280;39559;48.630;9.162;2023-06-19T05:34:56;97245.19;;;19.92;99.12
498;BME280;39559;48.630;9.162;2023-06-19T05:37:22;97246.59;;;19.97;98.71
498;BME280;39559;48.630;9.162;2023-06-19T05:41:38;97242.66;;;20.12;98.71
498;BME280;39559;48.630;9.162;2023-06-19T05:44:04;97253.03;;;20.35;97.32
498;BME280;39559;48.630;9.162;2023-06-19T05:46:29;97249.59;;;20.44;96.52
498;BME280;39559;48.630;9.162;2023-06-19T05:48:55;97258.28;;;20.35;98.55
498;BME280;39559;48.630;9.162;2023-06-19T05:51:21;97257.03;;;20.29;98.76
498;BME280;39559;48.630;9.162;2023-06-19T05:53:46;97251.63;;;20.30;98.67
498;BME280;39559;48.630;9.162;2023-06-19T05:56:14;97253.03;;;20.35;97.82
498;BME280;39559;48.630;9.162;2023-06-19T05:58:39;97260.38;;;20.41;98.28
498;BME280;39559;48.630;9.162;2023-06-19T06:01:05;97257.28;;;20.57;98.69
498;BME280;39559;48.630;9.162;2023-06-19T06:05:42;97258.63;;;20.51;99.35
498;BME280;39559;48.630;9.162;2023-06-19T06:08:08;97263.22;;;20.49;99.83
498;BME280;39559;48.630;9.162;2023-06-19T06:10:35;97268.06;;;20.75;96.27
498;BME280;39559;48.630;9.162;2023-06-19T06:13:00;97265.81;;;20.70;95.86
498;BME280;39559;48.630;9.162;2023-06-19T06:15:26;97263.09;;;20.81;96.82
498;BME280;39559;48.630;9.162;2023-06-19T06:17:51;97274.22;;;20.85;96.89
498;BME280;39559;48.630;9.162;2023-06-19T06:20:17;97278.63;;;20.84;96.74
498;BME280;39559;48.630;9.162;2023-06-19T06:22:43;97281.25;;;20.75;93.55
498;BME280;39559;48.630;9.162;2023-06-19T06:25:09;97282.38;;;20.82;95.36
498;BME280;39559;48.630;9.162;2023-06-19T06:29:25;97287.03;;;20.99;96.92
498;BME280;39559;48.630;9.162;2023-06-19T06:31:59;97291.50;;;21.08;94.80
498;BME280;39559;48.630;9.162;2023-06-19T06:34:27;97301.25;;;21.27;94.24
498;BME280;39559;48.630;9.162;2023-06-19T06:36:53;97307.09;;;21.31;97.73
498;BME280;39559;48.630;9.162;2023-06-19T06:39:19;97304.19;;;21.34;94.20
498;BME280;39559;48.630;9.162;2023-06-19T06:41:45;97310.28;;;21.25;92.59
498;BME280;39559;48.630;9.162;2023-06-19T06:44:10;97306.53;;;21.37;92.33
498;BME280;39559;48.630;9.162;2023-06-19T06:46:36;97312.94;;;21.44;93.05
498;BME280;39559;48.630;9.162;2023-06-19T06:49:02;97308.94;;;21.50;93.06
498;BME280;39559;48.630;9.162;2023-06-19T06:53:23;97308.81;;;21.71;92.44
498;BME280;39559;48.630;9.162;2023-06-19T06:55:48;97301.97;;;21.88;90.47
498;BME280;39559;48.630;9.162;2023-06-19T06:58:14;97304.19;;;21.93;89.62
498;BME280;39559;48.630;9.162;2023-06-19T07:00:41;97295.28;;;22.03;85.36
498;BME280;39559;48.630;9.162;2023-06-19T07:03:07;97304.44;;;22.09;85.10
498;BME280;39559;48.630;9.162;2023-06-19T07:05:33;97299.16;;;22.09;86.32
498;BME280;39559;48.630;9.162;2023-06-19T07:07:58;97295.59;;;22.48;84.28
498;BME280;39559;48.630;9.162;2023-06-19T07:10:24;97302.53;;;22.58;84.14
498;BME280;39559;48.630;9.162;2023-06-19T07:12:50;97296.06;;;22.71;83.52
498;BME280;39559;48.630;9.162;2023-06-19T07:17:19;97297.09;;;22.60;81.12
498;BME280;39559;48.630;9.162;2023-06-19T07:19:44;97291.13;;;22.48;83.35
498;BME280;39559;48.630;9.162;2023-06-19T07:22:10;97300.09;;;22.37;83.28
498;BME280;39559;48.630;9.162;2023-06-19T07:24:36;97298.19;;;22.57;82.73
498;BME280;39559;48.630;9.162;2023-06-19T07:27:02;97296.91;;;22.71;83.14
498;BME280;39559;48.630;9.162;2023-06-19T07:29:27;97301.38;;;22.98;79.58
498;BME280;39559;48.630;9.162;2023-06-19T07:31:53;97311.22;;;23.16;80.00
498;BME280;39559;48.630;9.162;2023-06-19T07:34:19;97308.91;;;23.21;81.12
498;BME280;39559;48.630;9.162;2023-06-19T07:36:45;97312.97;;;23.61;80.82
498;BME280;39559;48.630;9.162;2023-06-19T07:41:13;97320.34;;;24.03;78.88
498;BME280;39559;48.630;9.162;2023-06-19T07:43:39;97322.88;;;24.13;78.17
498;BME280;39559;48.630;9.162;2023-06-19T07:46:04;97332.88;;;24.19;75.47
498;BME280;39559;48.630;9.162;2023-06-19T07:48:30;97330.56;;;23.98;72.79
498;BME280;39559;48.630;9.162;2023-06-19T07:50:56;97329.78;;;23.70;72.71
498;BME280;39559;48.630;9.162;2023-06-19T07:53:22;97333.13;;;23.54;73.96
498;BME280;39559;48.630;9.162;2023-06-19T07:55:49;97325.69;;;23.40;74.83
498;BME280;39559;48.630;9.162;2023-06-19T07:58:15;97322.22;;;23.57;75.13
498;BME280;39559;48.630;9.162;2023-06-19T08:00:41;97322.53;;;23.54;75.15
498;BME280;39559;48.630;9.162;2023-06-19T08:05:09;97320.25;;;23.77;74.89
498;BME280;39559;48.630;9.162;2023-06-19T08:07:35;97324.03;;;24.10;72.76
498;BME280;39559;48.630;9.162;2023-06-19T08:10:02;97322.28;;;24.01;75.43
498;BME280;39559;48.630;9.162;2023-06-19T08:12:29;97325.53;;;24.13;70.37
498;BME280;39559;48.630;9.162;2023-06-19T08:14:55;97318.22;;;24.07;73.46
498;BME280;39559;48.630;9.162;2023-06-19T08:17:21;97318.06;;;24.34;73.86
498;BME280;39559;48.630;9.162;2023-06-19T08:19:47;97311.13;;;24.42;71.01
498;BME280;39559;48.630;9.162;2023-06-19T08:22:13;97312.78;;;24.17;68.96
498;BME280;39559;48.630;9.162;2023-06-19T08:24:39;97319.59;;;24.19;69.80
498;BME280;39559;48.630;9.162;2023-06-19T08:29:02;97311.13;;;24.68;64.45
498;BME280;39559;48.630;9.162;2023-06-19T08:31:28;97303.59;;;24.55;64.98
498;BME280;39559;48.630;9.162;2023-06-19T08:33:55;97308.09;;;24.55;64.08
498;BME280;39559;48.630;9.162;2023-06-19T08:36:21;97315.25;;;24.62;63.75
498;BME280;39559;48.630;9.162;2023-06-19T08:38:47;97305.19;;;24.74;64.82
498;BME280;39559;48.630;9.162;2023-06-19T08:41:18;97307.72;;;24.84;64.54
498;BME280;39559;48.630;9.162;2023-06-19T08:43:49;97295.97;;;24.95;64.98
498;BME280;39559;48.630;9.162;2023-06-19T08:46:18;97291.38;;;25.13;64.24
498;BME280;39559;48.630;9.162;2023-06-19T08:48:44;97306.25;;;25.48;65.14
498;BME280;39559;48.630;9.162;2023-06-19T08:53:01;97286.00;;;25.47;61.28
498;BME280;39559;48.630;9.162;2023-06-19T08:55:26;97286.50;;;25.67;61.48
498;BME280;39559;48.630;9.162;2023-06-19T08:57:54;97289.34;;;25.74;61.65
498;BME280;39559;48.630;9.162;2023-06-19T09:00:28;97292.78;;;25.25;62.58
498;BME280;39559;48.630;9.162;2023-06-19T09:03:02;97290.16;;;25.50;61.72
498;BME280;39559;48.630;9.162;2023-06-19T09:05:28;97284.34;;;25.63;61.46
498;BME280;39559;48.630;9.162;2023-06-19T09:07:59;97279.88;;;25.80;61.95
498;BME280;39559;48.630;9.162;2023-06-19T09:10:26;97277.19;;;26.21;59.08
498;BME280;39559;48.630;9.162;2023-06-19T09:13:00;97287.72;;;25.98;59.68
498;BME280;39559;48.630;9.162;2023-06-19T09:16:51;97293.47;;;25.68;55.49
498;BME280;39559;48.630;9.162;2023-06-19T09:19:20;97298.16;;;25.58;56.03
498;BME280;39559;48.630;9.162;2023-06-19T09:21:46;97294.69;;;25.74;56.69
498;BME280;39559;48.630;9.162;2023-06-19T09:24:12;97303.44;;;25.50;55.04
498;BME280;39559;48.630;9.162;2023-06-19T09:26:37;97298.16;;;25.58;54.49
498;BME280;39559;48.630;9.162;2023-06-19T09:29:13;97296.97;;;25.61;56.25
498;BME280;39559;48.630;9.162;2023-06-19T09:31:42;97299.63;;;25.36;58.20
498;BME280;39559;48.630;9.162;2023-06-19T09:34:08;97295.03;;;25.12;58.22
498;BME280;39559;48.630;9.162;2023-06-19T09:36:35;97301.84;;;25.15;58.95
498;BME280;39559;48.630;9.162;2023-06-19T09:40:47;97296.66;;;25.05;58.47
498;BME280;39559;48.630;9.162;2023-06-19T09:43:18;97294.88;;;25.14;58.94
498;BME280;39559;48.630;9.162;2023-06-19T09:45:49;97292.81;;;25.42;57.24
498;BME280;39559;48.630;9.162;2023-06-19T09:48:24;97295.53;;;25.07;59.57
498;BME280;39559;48.630;9.162;2023-06-19T09:50:59;97290.81;;;25.44;60.18
498;BME280;39559;48.630;9.162;2023-06-19T09:53:25;97295.13;;;25.37;60.26
498;BME280;39559;48.630;9.162;2023-06-19T09:55:51;97290.41;;;25.22;60.04
498;BME280;39559;48.630;9.162;2023-06-19T09:58:19;97286.81;;;25.32;58.73
498;BME280;39559;48.630;9.162;2023-06-19T10:00:46;97284.66;;;25.52;58.14
498;BME280;39559;48.630;9.162;2023-06-19T10:04:43;97285.50;;;25.52;57.04
498;BME280;39559;48.630;9.162;2023-06-19T10:07:18;97276.53;;;25.70;56.14
498;BME280;39559;48.630;9.162;2023-06-19T10:09:57;97274.88;;;25.77;60.19
498;BME280;39559;48.630;9.162;2023-06-19T10:12:45;97274.91;;;25.93;56.09
498;BME280;39559;48.630;9.162;2023-06-19T10:15:23;97279.16;;;26.35;54.10
498;BME280;39559;48.630;9.162;2023-06-19T10:17:59;97271.69;;;26.31;56.28
498;BME280;39559;48.630;9.162;2023-06-19T10:20:36;97276.13;;;26.47;54.15
498;BME280;39559;48.630;9.162;2023-06-19T10:23:14;97269.44;;;26.59;54.06
498;BME280;39559;48.630;9.162;2023-06-19T10:25:44;97268.34;;;26.93;53.78
498;BME280;39559;48.630;9.162;2023-06-19T10:28:35;97269.47;;;26.98;54.49
498;BME280;39559;48.630;9.162;2023-06-19T10:31:05;97267.19;;;26.87;52.61
498;BME280;39559;48.630;9.162;2023-06-19T10:33:33;97257.03;;;27.14;52.32
498;BME280;39559;48.630;9.162;2023-06-19T10:36:01;97259.59;;;27.07;51.17
498;BME280;39559;48.630;9.162;2023-06-19T10:38:28;97250.91;;;26.74;51.96
498;BME280;39559;48.630;9.162;2023-06-19T10:40:54;97257.69;;;26.93;53.58
498;BME280;39559;48.630;9.162;2023-06-19T10:43:22;97251.44;;;27.40;51.92
498;BME280;39559;48.630;9.162;2023-06-19T10:45:57;97250.66;;;27.00;49.53
498;BME280;39559;48.630;9.162;2023-06-19T10:48:24;97239.75;;;26.78;53.09
498;BME280;39559;48.630;9.162;2023-06-19T10:52:40;97246.72;;;26.79;52.12
498;BME280;39559;48.630;9.162;2023-06-19T10:55:07;97246.78;;;26.71;54.40
498;BME280;39559;48.630;9.162;2023-06-19T10:57:33;97245.50;;;26.98;52.07
498;BME280;39559;48.630;9.162;2023-06-19T10:59:59;97243.13;;;27.04;53.21
498;BME280;39559;48.630;9.162;2023-06-19T11:02:26;97243.22;;;26.87;52.03
498;BME280;39559;48.630;9.162;2023-06-19T11:04:56;97235.78;;;26.74;51.88
498;BME280;39559;48.630;9.162;2023-06-19T11:07:22;97233.34;;;26.48;52.71
498;BME280;39559;48.630;9.162;2023-06-19T11:09:51;97241.16;;;26.58;52.30
498;BME280;39559;48.630;9.162;2023-06-19T11:12:22;97234.22;;;26.49;55.06
498;BME280;39559;48.630;9.162;2023-06-19T11:16:27;97227.81;;;26.66;54.08
498;BME280;39559;48.630;9.162;2023-06-19T11:18:57;97227.63;;;27.07;53.92
498;BME280;39559;48.630;9.162;2023-06-19T11:21:30;97212.13;;;27.34;54.91
498;BME280;39559;48.630;9.162;2023-06-19T11:23:58;97204.44;;;27.77;52.89
498;BME280;39559;48.630;9.162;2023-06-19T11:26:24;97207.66;;;28.25;52.90
498;BME280;39559;48.630;9.162;2023-06-19T11:28:50;97208.00;;;28.52;49.33
498;BME280;39559;48.630;9.162;2023-06-19T11:31:16;97213.69;;;28.79;50.26
498;BME280;39559;48.630;9.162;2023-06-19T11:33:41;97209.38;;;28.63;48.59
498;BME280;39559;48.630;9.162;2023-06-19T11:36:08;97215.47;;;28.27;47.29
498;BME280;39559;48.630;9.162;2023-06-19T11:40:16;97212.13;;;28.40;48.18
498;BME280;39559;48.630;9.162;2023-06-19T11:42:49;97207.66;;;28.25;48.62
498;BME280;39559;48.630;9.162;2023-06-19T11:45:16;97205.97;;;28.24;47.58
498;BME280;39559;48.630;9.162;2023-06-19T11:47:46;97207.72;;;28.17;48.65
498;BME280;39559;48.630;9.162;2023-06-19T11:50:13;97218.31;;;28.10;47.91
498;BME280;39559;48.630;9.162;2023-06-19T11:52:39;97212.31;;;27.93;49.01
498;BME280;39559;48.630;9.162;2023-06-19T11:55:05;97212.50;;;27.92;49.01
498;BME280;39559;48.630;9.162;2023-06-19T11:57:31;97208.78;;;27.78;47.38
498;BME280;39559;48.630;9.162;2023-06-19T11:59:58;97198.22;;;28.00;48.31
498;BME280;39559;48.630;9.162;2023-06-19T12:04:09;97204.84;;;27.51;51.14
498;BME280;39559;48.630;9.162;2023-06-19T12:06:35;97205.72;;;27.20;54.57
498;BME280;39559;48.630;9.162;2023-06-19T12:09:01;97198.13;;;27.09;54.45
498;BME280;39559;48.630;9.162;2023-06-19T12:11:27;97192.84;;;27.00;56.27
498;BME280;39559;48.630;9.162;2023-06-19T12:13:52;97179.97;;;27.04;56.69
498;BME280;39559;48.630;9.162;2023-06-19T12:16:23;97181.53;;;26.98;55.01
498;BME280;39559;48.630;9.162;2023-06-19T12:18:49;97193.44;;;27.11;56.71
498;BME280;39559;48.630;9.162;2023-06-19T12:21:15;97190.84;;;27.49;56.06
498;BME280;39559;48.630;9.162;2023-06-19T12:23:40;97185.09;;;27.75;55.85
498;BME280;39559;48.630;9.162;2023-06-19T12:28:03;97187.41;;;27.40;51.71
498;BME280;39559;48.630;9.162;2023-06-19T12:30:34;97187.84;;;27.67;53.45
498;BME280;39559;48.630;9.162;2023-06-19T12:33:00;97186.56;;;28.15;50.06
498;BME280;39559;48.630;9.162;2023-06-19T12:35:26;97190.22;;;28.00;49.88
498;BME280;39559;48.630;9.162;2023-06-19T12:37:52;97186.19;;;28.33;48.98
498;BME280;39559;48.630;9.162;2023-06-19T12:40:18;97190.69;;;28.03;50.38
498;BME280;39559;48.630;9.162;2023-06-19T12:42:43;97180.56;;;28.58;49.43
498;BME280;39559;48.630;9.162;2023-06-19T12:45:10;97175.22;;;28.95;49.96
498;BME280;39559;48.630;9.162;2023-06-19T12:47:36;97182.38;;;29.52;48.94
498;BME280;39559;48.630;9.162;2023-06-19T12:51:55;97180.31;;;29.54;47.81
498;BME280;39559;48.630;9.162;2023-06-19T12:54:20;97184.56;;;29.70;46.66
498;BME280;39559;48.630;9.162;2023-06-19T12:56:46;97175.91;;;29.68;47.29
498;BME280;39559;48.630;9.162;2023-06-19T12:59:12;97172.81;;;29.43;47.67
498;BME280;39559;48.630;9.162;2023-06-19T13:01:37;97173.75;;;29.14;47.91
498;BME280;39559;48.630;9.162;2023-06-19T13:04:03;97176.81;;;29.25;47.26
498;BME280;39559;48.630;9.162;2023-06-19T13:06:29;97174.19;;;28.96;46.91
498;BME280;39559;48.630;9.162;2023-06-19T13:09:01;97166.94;;;29.26;47.14
498;BME280;39559;48.630;9.162;2023-06-19T13:11:31;97164.50;;;29.31;47.32
498;BME280;39559;48.630;9.162;2023-06-19T13:15:48;97167.72;;;29.05;46.12
498;BME280;39559;48.630;9.162;2023-06-19T13:18:14;97156.91;;;29.56;46.11
498;BME280;39559;48.630;9.162;2023-06-19T13:20:39;97152.00;;;29.60;45.83
498;BME280;39559;48.630;9.162;2023-06-19T13:23:05;97149.25;;;29.75;45.65
498;BME280;39559;48.630;9.162;2023-06-19T13:25:43;97146.91;;;29.72;44.24
498;BME280;39559;48.630;9.162;2023-06-19T13:28:11;97139.34;;;29.75;44.24
498;BME280;39559;48.630;9.162;2023-06-19T13:30:37;97139.69;;;29.65;44.76
498;BME280;39559;48.630;9.162;2023-06-19T13:33:02;97141.06;;;29.61;44.95
498;BME280;39559;48.630;9.162;2023-06-19T13:35:28;97144.13;;;29.30;45.13
498;BME280;39559;48.630;9.162;2023-06-19T13:39:45;97142.72;;;29.13;45.34
498;BME280;39559;48.630;9.162;2023-06-19T13:42:10;97140.94;;;28.83;46.39
498;BME280;39559;48.630;9.162;2023-06-19T13:44:37;97135.06;;;29.09;45.79
498;BME280;39559;48.630;9.162;2023-06-19T13:47:06;97123.06;;;29.20;45.90
498;BME280;39559;48.630;9.162;2023-06-19T13:49:31;97122.00;;;29.43;46.03
498;BME280;39559;48.630;9.162;2023-06-19T13:52:01;97119.84;;;29.32;47.24
498;BME280;39559;48.630;9.162;2023-06-19T13:54:26;97118.75;;;29.47;47.76
498;BME280;39559;48.630;9.162;2023-06-19T13:56:52;97113.78;;;29.16;45.75
498;BME280;39559;48.630;9.162;2023-06-19T13:59:18;97110.38;;;29.07;45.33
498;BME280;39559;48.630;9.162;2023-06-19T14:03:38;97100.06;;;29.54;44.38
498;BME280;39559;48.630;9.162;2023-06-19T14:06:05;97107.56;;;29.65;44.39
498;BME280;39559;48.630;9.162;2023-06-19T14:08:30;97096.28;;;29.42;46.33
498;BME280;39559;48.630;9.162;2023-06-19T14:10:56;97097.97;;;29.50;45.67
498;BME280;39559;48.630;9.162;2023-06-19T14:13:22;97091.72;;;29.71;45.55
498;BME280;39559;48.630;9.162;2023-06-19T14:15:47;97090.91;;;30.05;44.31
498;BME280;39559;48.630;9.162;2023-06-19T14:18:13;97086.31;;;29.92;43.36
498;BME280;39559;48.630;9.162;2023-06-19T14:20:39;97084.50;;;29.64;41.72
498;BME280;39559;48.630;9.162;2023-06-19T14:23:07;97085.09;;;29.32;41.34
498;BME280;39559;48.630;9.162;2023-06-19T14:27:30;97080.31;;;29.05;43.37